Time;durP1;ratioP1;P1;durP2;ratioP2;P2;SDS_P1;SDS_P2;PMS_P1;PMS_P2;Temp;Humidity;BMP_temperature;BMP_pressure;BME280_temperature;BME280_humidity;BME280_pressure;Samples;Min_cycle;Max_cycle;Signal;HPM_P1;HPM_P2
2022/07/01 00:01:25;;;;;;;0.40;0.30;;;16.70;99.90;;;;;;5070786;28;20395;-70
2022/07/01 00:03:51;;;;;;;0.40;0.20;;;16.80;99.90;;;;;;5053881;28;20396;-68
2022/07/01 00:06:17;;;;;;;0.40;0.30;;;16.70;99.90;;;;;;5071081;28;20395;-69
2022/07/01 00:08:43;;;;;;;0.40;0.30;;;16.70;99.90;;;;;;5069894;28;20408;-68
2022/07/01 00:11:09;;;;;;;0.40;0.30;;;16.60;99.90;;;;;;5070082;28;20398;-68
2022/07/01 00:13:35;;;;;;;0.40;0.30;;;16.40;99.90;;;;;;5070035;28;20380;-68
2022/07/01 00:16:01;;;;;;;0.40;0.20;;;16.50;99.90;;;;;;5070046;28;20380;-68
2022/07/01 00:18:26;;;;;;;0.40;0.30;;;16.30;99.90;;;;;;5070473;28;20383;-68
2022/07/01 00:20:52;;;;;;;0.40;0.20;;;16.20;99.90;;;;;;5069916;28;20391;-68
2022/07/01 00:23:18;;;;;;;0.40;0.30;;;16.40;99.90;;;;;;5071003;28;20868;-68
2022/07/01 00:25:45;;;;;;;0.40;0.20;;;16.20;99.90;;;;;;5070744;28;20436;-67
2022/07/01 00:28:11;;;;;;;0.40;0.30;;;16.40;99.90;;;;;;5070859;28;20399;-67
2022/07/01 00:30:37;;;;;;;0.40;0.30;;;16.30;99.90;;;;;;5071299;28;20772;-67
2022/07/01 00:33:03;;;;;;;0.40;0.30;;;16.40;99.90;;;;;;5069581;28;20415;-67
2022/07/01 00:35:29;;;;;;;0.40;0.20;;;16.40;99.90;;;;;;5053085;28;20392;-67
2022/07/01 00:37:55;;;;;;;0.40;0.20;;;16.40;99.90;;;;;;5069725;28;20376;-67
2022/07/01 00:40:21;;;;;;;0.40;0.20;;;16.30;99.90;;;;;;5070740;28;20372;-67
2022/07/01 00:42:47;;;;;;;0.40;0.20;;;16.00;99.90;;;;;;5069751;28;20414;-68
2022/07/01 00:45:16;;;;;;;0.40;0.30;;;16.00;99.90;;;;;;5069992;28;20741;-67
2022/07/01 00:47:43;;;;;;;0.40;0.30;;;15.90;99.90;;;;;;5070819;28;20384;-67
2022/07/01 00:50:11;;;;;;;0.40;0.20;;;15.90;99.90;;;;;;5069974;28;20368;-67
2022/07/01 00:52:38;;;;;;;0.40;0.30;;;15.90;99.90;;;;;;5060763;28;20393;-67
2022/07/01 00:55:07;;;;;;;0.40;0.30;;;15.80;99.90;;;;;;5049903;28;20420;-67
2022/07/01 00:57:35;;;;;;;0.40;0.30;;;15.80;99.90;;;;;;5050422;28;20439;-67
2022/07/01 01:00:07;;;;;;;0.40;0.20;;;15.90;99.90;;;;;;5049822;28;20435;-67
2022/07/01 01:02:33;;;;;;;0.40;0.20;;;15.80;99.90;;;;;;5050871;28;20468;-67
2022/07/01 01:04:59;;;;;;;0.40;0.20;;;15.80;99.90;;;;;;5050005;28;20472;-67
2022/07/01 01:07:25;;;;;;;0.40;0.30;;;15.80;99.90;;;;;;5050440;28;20473;-67
2022/07/01 01:09:51;;;;;;;0.40;0.20;;;15.70;99.90;;;;;;5064321;28;20390;-67
2022/07/01 01:12:17;;;;;;;0.40;0.30;;;15.80;99.90;;;;;;5070582;28;20732;-66
2022/07/01 01:14:46;;;;;;;0.40;0.30;;;15.80;99.90;;;;;;5070288;28;20372;-67
2022/07/01 01:17:13;;;;;;;0.40;0.30;;;15.80;99.90;;;;;;5069462;28;20400;-67
2022/07/01 01:19:39;;;;;;;0.40;0.30;;;16.00;99.90;;;;;;5069946;28;20391;-67
2022/07/01 01:22:05;;;;;;;0.40;0.20;;;15.90;99.90;;;;;;5069073;28;21087;-67
2022/07/01 01:24:30;;;;;;;0.40;0.20;;;15.80;99.90;;;;;;5070205;28;20383;-67
2022/07/01 01:26:56;;;;;;;0.40;0.20;;;15.90;99.90;;;;;;5069317;28;20384;-66
2022/07/01 01:29:22;;;;;;;0.40;0.20;;;15.80;99.90;;;;;;5069970;28;20418;-66
2022/07/01 01:31:48;;;;;;;0.40;0.20;;;15.70;99.90;;;;;;5073044;28;20482;-67
2022/07/01 01:34:13;;;;;;;0.40;0.30;;;15.60;99.90;;;;;;5073154;28;20415;-67
2022/07/01 01:36:39;;;;;;;0.40;0.20;;;15.90;99.90;;;;;;5073251;28;20392;-66
2022/07/01 01:41:37;;;;;;;0.40;0.30;;;15.80;99.90;;;;;;5073016;28;20392;-66
2022/07/01 01:44:03;;;;;;;0.40;0.20;;;16.00;99.90;;;;;;5072555;28;20893;-67
2022/07/01 01:46:29;;;;;;;0.40;0.20;;;15.90;99.90;;;;;;5073472;28;20431;-66
2022/07/01 01:48:55;;;;;;;0.40;0.40;;;15.90;99.90;;;;;;5072448;28;20407;-66
2022/07/01 01:51:21;;;;;;;0.40;0.30;;;15.70;99.90;;;;;;5073536;28;20383;-66
2022/07/01 01:53:47;;;;;;;0.40;0.20;;;15.80;99.90;;;;;;5053555;28;20733;-66
2022/07/01 01:56:16;;;;;;;0.40;0.23;;;15.80;99.90;;;;;;5052945;28;20378;-66
2022/07/01 01:58:42;;;;;;;0.40;0.20;;;15.80;99.90;;;;;;5051687;28;20389;-66
2022/07/01 02:01:12;;;;;;;0.40;0.28;;;15.90;99.90;;;;;;5065477;28;20859;-65
2022/07/01 02:03:39;;;;;;;0.40;0.30;;;15.60;99.90;;;;;;5072895;28;20435;-66
2022/07/01 02:06:06;;;;;;;0.40;0.30;;;15.70;99.90;;;;;;5070812;28;20399;-66
2022/07/01 02:08:32;;;;;;;0.40;0.30;;;15.60;99.90;;;;;;5072640;28;20414;-66
2022/07/01 02:10:58;;;;;;;0.40;0.20;;;15.90;99.90;;;;;;5071578;28;20815;-66
2022/07/01 02:13:25;;;;;;;0.40;0.20;;;15.70;99.90;;;;;;5072737;28;20407;-66
2022/07/01 02:15:50;;;;;;;0.40;0.20;;;15.60;99.90;;;;;;5072468;28;20376;-66
2022/07/01 02:18:16;;;;;;;0.40;0.20;;;15.60;99.90;;;;;;5072276;28;20395;-66
2022/07/01 02:20:42;;;;;;;0.40;0.22;;;15.80;99.90;;;;;;5072045;28;20384;-66
2022/07/01 02:23:09;;;;;;;0.40;0.30;;;15.80;99.90;;;;;;5070377;28;20613;-66
2022/07/01 02:25:35;;;;;;;0.40;0.20;;;15.70;99.90;;;;;;5072108;28;20400;-66
2022/07/01 02:28:02;;;;;;;0.40;0.20;;;15.60;99.90;;;;;;5071632;28;20759;-66
2022/07/01 02:30:28;;;;;;;0.40;0.20;;;15.70;99.90;;;;;;5071459;28;20466;-66
2022/07/01 02:32:53;;;;;;;0.40;0.20;;;15.70;99.90;;;;;;5070811;28;20673;-66
2022/07/01 02:35:19;;;;;;;0.40;0.30;;;15.70;99.90;;;;;;5072147;28;20541;-66
2022/07/01 02:37:45;;;;;;;0.40;0.20;;;15.50;99.90;;;;;;5071899;28;20438;-66
2022/07/01 02:40:13;;;;;;;0.40;0.20;;;15.60;99.90;;;;;;5070747;28;20395;-66
2022/07/01 02:42:39;;;;;;;0.40;0.30;;;15.60;99.90;;;;;;5071863;28;20403;-67
2022/07/01 02:45:06;;;;;;;0.40;0.20;;;15.60;99.90;;;;;;5070918;28;20392;-67
2022/07/01 02:47:34;;;;;;;0.40;0.20;;;15.70;99.90;;;;;;5071606;28;20453;-67
2022/07/01 02:50:00;;;;;;;0.70;0.70;;;15.60;99.90;;;;;;5070298;28;20503;-67
2022/07/01 02:52:26;;;;;;;0.40;0.40;;;15.80;99.90;;;;;;5071886;28;20717;-67
2022/07/01 02:54:52;;;;;;;0.40;0.22;;;15.90;99.90;;;;;;5071022;28;20395;-67
2022/07/01 02:57:18;;;;;;;0.40;0.30;;;15.90;99.90;;;;;;5071305;28;20402;-66
2022/07/01 02:59:43;;;;;;;0.40;0.20;;;15.90;99.90;;;;;;5071095;28;20908;-67
2022/07/01 03:02:09;;;;;;;0.40;0.20;;;15.70;99.90;;;;;;5070142;28;20442;-67
2022/07/01 03:04:35;;;;;;;0.40;0.20;;;15.70;99.90;;;;;;5071641;28;20400;-67
2022/07/01 03:07:01;;;;;;;0.40;0.20;;;15.80;99.90;;;;;;5070435;28;20387;-66
2022/07/01 03:09:26;;;;;;;0.40;0.20;;;15.90;99.90;;;;;;5071795;28;20851;-67
2022/07/01 03:11:52;;;;;;;0.40;0.30;;;16.00;99.90;;;;;;5070927;28;20395;-66
2022/07/01 03:14:18;;;;;;;0.40;0.30;;;15.90;99.90;;;;;;5070823;28;20387;-67
2022/07/01 03:16:44;;;;;;;0.40;0.20;;;15.60;99.90;;;;;;5070948;28;20388;-68
2022/07/01 03:19:09;;;;;;;0.40;0.30;;;15.60;99.90;;;;;;5070878;28;20388;-67
2022/07/01 03:21:35;;;;;;;0.40;0.20;;;15.60;99.90;;;;;;5069085;28;20879;-67
2022/07/01 03:24:01;;;;;;;0.40;0.30;;;15.70;99.90;;;;;;5050727;28;20866;-67
2022/07/01 03:26:26;;;;;;;0.40;0.20;;;15.50;99.90;;;;;;5051689;28;20380;-67
2022/07/01 03:28:52;;;;;;;0.40;0.30;;;15.70;99.90;;;;;;5051155;28;20943;-67
2022/07/01 03:31:18;;;;;;;0.40;0.30;;;15.50;99.90;;;;;;5051192;28;20385;-67
2022/07/01 03:33:45;;;;;;;0.60;0.60;;;15.60;99.90;;;;;;5053829;28;20437;-67
2022/07/01 03:36:11;;;;;;;0.40;0.20;;;15.50;99.90;;;;;;5070545;28;20922;-67
2022/07/01 03:38:36;;;;;;;0.40;0.30;;;15.70;99.90;;;;;;5071436;28;20384;-68
2022/07/01 03:41:02;;;;;;;0.40;0.20;;;15.50;99.90;;;;;;5070784;28;20434;-67
2022/07/01 03:43:28;;;;;;;0.40;0.20;;;15.40;99.90;;;;;;5071366;28;20426;-68
2022/07/01 03:45:53;;;;;;;0.40;0.28;;;15.40;99.90;;;;;;5071507;28;20384;-68
2022/07/01 03:48:19;;;;;;;0.40;0.30;;;15.50;99.90;;;;;;5070899;28;20795;-68
2022/07/01 03:50:45;;;;;;;0.40;0.30;;;15.50;99.90;;;;;;5053064;28;20419;-69
2022/07/01 03:55:54;;;;;;;0.40;0.20;;;15.40;99.90;;;;;;5070781;28;20424;-67
2022/07/01 03:58:20;;;;;;;0.40;0.20;;;15.10;99.90;;;;;;5069972;28;20806;-68
2022/07/01 04:00:46;;;;;;;0.40;0.20;;;15.20;99.90;;;;;;5070583;28;20790;-67
2022/07/01 04:03:11;;;;;;;0.40;0.30;;;15.20;99.90;;;;;;5068995;28;20472;-67
2022/07/01 04:05:38;;;;;;;0.40;0.20;;;15.20;99.90;;;;;;5070336;28;20791;-67
2022/07/01 04:08:06;;;;;;;0.40;0.20;;;15.20;99.90;;;;;;5069972;28;20403;-67
2022/07/01 04:10:33;;;;;;;0.40;0.20;;;15.10;99.90;;;;;;5070439;28;20396;-68
2022/07/01 04:13:01;;;;;;;0.40;0.30;;;15.20;99.90;;;;;;5069821;28;20522;-67
2022/07/01 04:15:26;;;;;;;0.40;0.30;;;15.10;99.90;;;;;;5052175;28;20399;-67
2022/07/01 04:17:52;;;;;;;0.40;0.20;;;15.10;99.90;;;;;;5067142;28;20844;-68
2022/07/01 04:20:18;;;;;;;0.40;0.30;;;15.10;99.90;;;;;;5069616;28;20395;-67
2022/07/01 04:22:43;;;;;;;0.40;0.20;;;15.20;99.90;;;;;;5070363;28;20445;-67
2022/07/01 04:25:09;;;;;;;0.40;0.20;;;15.20;99.90;;;;;;5069730;28;20426;-67
2022/07/01 04:27:35;;;;;;;0.40;0.20;;;15.20;99.90;;;;;;5069943;28;20434;-67
2022/07/01 04:30:04;;;;;;;0.40;0.20;;;15.40;99.90;;;;;;5069753;28;20851;-67
2022/07/01 04:32:30;;;;;;;0.40;0.40;;;15.40;99.90;;;;;;5081871;28;20414;-67
2022/07/01 04:34:56;;;;;;;0.40;0.20;;;15.20;99.90;;;;;;5070361;28;20410;-67
2022/07/01 04:37:22;;;;;;;0.40;0.20;;;15.30;99.90;;;;;;5070113;28;20392;-67
2022/07/01 04:39:48;;;;;;;0.40;0.20;;;15.30;99.90;;;;;;5070721;28;20566;-67
2022/07/01 04:42:15;;;;;;;0.40;0.20;;;15.30;99.90;;;;;;5067428;28;20998;-67
2022/07/01 04:44:40;;;;;;;0.40;0.20;;;15.30;99.90;;;;;;5067475;28;20482;-67
2022/07/01 04:47:06;;;;;;;0.40;0.20;;;15.20;99.90;;;;;;5069345;28;20472;-67
2022/07/01 04:49:32;;;;;;;0.40;0.20;;;15.10;99.90;;;;;;5070677;28;20391;-67
2022/07/01 04:51:58;;;;;;;0.40;0.30;;;15.20;99.90;;;;;;5074081;28;20397;-67
2022/07/01 04:54:25;;;;;;;0.40;0.30;;;15.10;99.90;;;;;;5090473;28;20428;-67
2022/07/01 04:56:52;;;;;;;0.40;0.30;;;15.10;99.90;;;;;;5076110;28;20423;-68
2022/07/01 04:59:19;;;;;;;0.40;0.20;;;15.10;99.90;;;;;;5069175;28;20407;-70
2022/07/01 05:01:48;;;;;;;0.40;0.20;;;15.10;99.90;;;;;;5067692;28;20400;-67
2022/07/01 05:04:14;;;;;;;0.40;0.20;;;15.00;99.90;;;;;;5069325;28;20942;-67
2022/07/01 05:06:41;;;;;;;0.40;0.20;;;15.00;99.90;;;;;;5074230;28;20395;-67
2022/07/01 05:09:07;;;;;;;0.40;0.20;;;14.90;99.90;;;;;;5072913;28;20502;-67
2022/07/01 05:11:35;;;;;;;0.40;0.20;;;14.90;99.90;;;;;;5072680;28;20395;-67
2022/07/01 05:14:01;;;;;;;0.40;0.20;;;14.80;99.90;;;;;;5072150;28;20394;-67
2022/07/01 05:16:26;;;;;;;0.40;0.30;;;14.70;99.90;;;;;;5073715;28;20395;-67
2022/07/01 05:24:20;;;;;;;0.40;0.20;;;14.60;99.90;;;;;;5072937;28;20978;-67
2022/07/01 05:26:46;;;;;;;0.40;0.20;;;14.40;99.90;;;;;;5073470;28;20392;-68
2022/07/01 05:29:12;;;;;;;0.40;0.20;;;14.40;99.90;;;;;;5070009;28;20796;-66
2022/07/01 05:31:37;;;;;;;0.40;0.30;;;14.50;99.90;;;;;;5056340;28;20459;-69
2022/07/01 05:34:03;;;;;;;0.40;0.30;;;14.40;99.90;;;;;;5053439;28;20405;-67
2022/07/01 05:36:32;;;;;;;0.40;0.30;;;14.50;99.90;;;;;;5035861;28;20420;-67
2022/07/01 05:38:58;;;;;;;0.40;0.20;;;14.50;99.90;;;;;;5053971;28;20438;-67
2022/07/01 05:41:23;;;;;;;0.40;0.28;;;14.50;99.90;;;;;;5052833;28;20893;-68
2022/07/01 05:43:49;;;;;;;0.40;0.20;;;14.40;99.90;;;;;;5053950;28;20381;-68
2022/07/01 05:46:15;;;;;;;0.40;0.20;;;14.40;99.90;;;;;;5053065;28;20377;-68
2022/07/01 05:48:41;;;;;;;0.40;0.20;;;14.50;99.90;;;;;;5053502;28;20517;-68
2022/07/01 05:51:06;;;;;;;0.40;0.20;;;14.40;99.90;;;;;;5052889;28;20949;-68
2022/07/01 05:53:32;;;;;;;0.40;0.20;;;14.50;99.90;;;;;;5070636;28;20864;-67
2022/07/01 05:55:57;;;;;;;0.40;0.28;;;14.70;99.90;;;;;;5073599;28;20755;-68
2022/07/01 05:58:23;;;;;;;0.40;0.20;;;14.70;99.90;;;;;;5070227;28;21061;-67
2022/07/01 06:00:50;;;;;;;0.40;0.20;;;14.40;99.90;;;;;;5070606;28;20470;-67
2022/07/01 06:03:16;;;;;;;0.40;0.20;;;14.50;99.90;;;;;;5070731;28;20393;-68
2022/07/01 06:05:42;;;;;;;0.40;0.30;;;14.60;99.90;;;;;;5076688;28;20370;-67
2022/07/01 06:08:08;;;;;;;0.40;0.20;;;14.60;99.90;;;;;;5070023;28;20405;-66
2022/07/01 06:10:34;;;;;;;0.40;0.20;;;14.40;99.90;;;;;;5074876;28;20867;-67
2022/07/01 06:13:00;;;;;;;0.40;0.30;;;14.20;99.90;;;;;;5071341;28;20434;-67
2022/07/01 06:15:27;;;;;;;0.60;0.60;;;14.30;99.90;;;;;;5065814;28;20391;-67
2022/07/01 06:17:53;;;;;;;0.40;0.20;;;14.20;99.90;;;;;;5061437;28;20772;-66
2022/07/01 06:20:19;;;;;;;0.40;0.30;;;14.10;99.90;;;;;;5034632;28;20382;-67
2022/07/01 06:22:45;;;;;;;0.40;0.30;;;14.20;99.90;;;;;;5053076;28;20401;-67
2022/07/01 06:25:11;;;;;;;0.40;0.30;;;14.10;99.90;;;;;;5052004;28;20381;-68
2022/07/01 06:27:41;;;;;;;0.40;0.30;;;13.80;99.90;;;;;;5053048;28;20389;-66
2022/07/01 06:30:08;;;;;;;0.40;0.30;;;13.80;99.90;;;;;;5063572;28;20420;-67
2022/07/01 06:32:33;;;;;;;0.40;0.20;;;13.90;99.90;;;;;;5069558;28;20403;-68
2022/07/01 06:34:59;;;;;;;0.40;0.30;;;13.90;99.90;;;;;;5070084;28;20449;-67
2022/07/01 06:37:25;;;;;;;0.40;0.20;;;14.00;99.90;;;;;;5070693;28;20470;-68
2022/07/01 06:39:51;;;;;;;0.40;0.20;;;14.10;99.90;;;;;;5061679;28;20449;-68
2022/07/01 06:42:17;;;;;;;0.40;0.20;;;14.00;99.90;;;;;;5066302;28;20410;-67
2022/07/01 06:44:42;;;;;;;0.40;0.20;;;13.90;99.90;;;;;;5061874;28;20987;-67
2022/07/01 06:47:08;;;;;;;1.00;0.70;;;13.90;99.90;;;;;;5051642;28;20374;-68
2022/07/01 06:49:34;;;;;;;0.40;0.30;;;14.00;99.90;;;;;;5068149;28;20404;-69
2022/07/01 06:51:59;;;;;;;0.40;0.20;;;14.10;99.90;;;;;;5075146;28;20402;-70
2022/07/01 06:54:25;;;;;;;0.40;0.20;;;14.10;99.90;;;;;;5070629;28;20384;-70
2022/07/01 06:56:51;;;;;;;0.40;0.40;;;14.00;99.90;;;;;;5070950;28;20491;-70
2022/07/01 06:59:17;;;;;;;0.40;0.20;;;14.20;99.90;;;;;;5071127;28;20478;-70
2022/07/01 07:01:43;;;;;;;0.40;0.20;;;14.10;99.90;;;;;;5071486;28;20431;-70
2022/07/01 07:04:08;;;;;;;0.40;0.20;;;14.00;99.90;;;;;;5070626;28;20388;-68
2022/07/01 07:06:34;;;;;;;0.40;0.20;;;14.10;99.90;;;;;;5071527;28;20395;-69
2022/07/01 07:09:00;;;;;;;0.40;0.20;;;14.20;99.90;;;;;;5070474;28;20855;-70
2022/07/01 07:11:27;;;;;;;0.40;0.20;;;14.20;99.90;;;;;;5070940;28;20465;-70
2022/07/01 07:13:52;;;;;;;0.40;0.20;;;14.10;99.90;;;;;;5071548;28;20391;-70
2022/07/01 07:16:21;;;;;;;0.40;0.20;;;14.30;99.90;;;;;;5070832;28;20463;-69
2022/07/01 07:18:50;;;;;;;0.40;0.20;;;14.30;99.90;;;;;;5071128;28;20394;-70
2022/07/01 07:21:16;;;;;;;0.40;0.20;;;14.40;99.90;;;;;;5070443;28;20736;-69
2022/07/01 07:23:42;;;;;;;0.40;0.30;;;14.30;99.90;;;;;;5071182;28;20391;-69
2022/07/01 07:26:08;;;;;;;0.40;0.20;;;14.30;99.90;;;;;;5070812;28;20398;-68
2022/07/01 07:28:34;;;;;;;0.40;0.20;;;14.40;99.90;;;;;;5069502;28;20494;-69
2022/07/01 07:31:00;;;;;;;0.40;0.20;;;14.40;99.90;;;;;;5071738;28;20414;-69
2022/07/01 07:33:25;;;;;;;0.40;0.20;;;14.30;99.90;;;;;;5070187;28;21218;-69
2022/07/01 07:35:52;;;;;;;0.40;0.20;;;14.40;99.90;;;;;;5070592;28;20403;-69
2022/07/01 07:38:17;;;;;;;0.40;0.20;;;14.50;99.90;;;;;;5070556;28;20395;-69
2022/07/01 07:40:43;;;;;;;0.40;0.20;;;14.50;99.90;;;;;;5070614;28;20425;-70
2022/07/01 07:43:09;;;;;;;0.40;0.30;;;14.50;99.90;;;;;;5069829;28;20879;-69
2022/07/01 07:45:35;;;;;;;0.40;0.23;;;14.60;99.90;;;;;;5069542;28;20388;-70
2022/07/01 07:48:02;;;;;;;1.13;1.13;;;14.60;99.90;;;;;;5069837;28;20502;-70
2022/07/01 07:50:28;;;;;;;0.40;0.20;;;14.70;99.90;;;;;;5069859;28;20425;-70
2022/07/01 07:52:53;;;;;;;0.40;0.20;;;14.80;99.90;;;;;;5069090;28;20391;-70
2022/07/01 07:55:19;;;;;;;0.40;0.20;;;14.80;99.90;;;;;;5081331;28;20389;-68
2022/07/01 07:57:45;;;;;;;0.40;0.30;;;14.80;99.90;;;;;;5076573;28;20790;-67
2022/07/01 08:00:12;;;;;;;0.40;0.20;;;14.80;99.90;;;;;;5069869;28;20388;-67
2022/07/01 08:02:41;;;;;;;0.40;0.30;;;14.90;99.90;;;;;;5070817;28;20407;-67
2022/07/01 08:05:09;;;;;;;0.40;0.20;;;15.00;99.90;;;;;;5070772;28;20462;-67
2022/07/01 08:07:36;;;;;;;0.40;0.20;;;14.90;99.90;;;;;;5069937;28;20396;-68
2022/07/01 08:10:04;;;;;;;0.40;0.30;;;15.00;99.90;;;;;;5070232;28;20485;-69
2022/07/01 08:12:30;;;;;;;0.40;0.30;;;15.00;99.90;;;;;;5069727;28;20468;-67
2022/07/01 08:14:55;;;;;;;0.40;0.20;;;15.20;99.90;;;;;;5068995;28;20471;-67
2022/07/01 08:17:21;;;;;;;0.40;0.20;;;15.10;99.90;;;;;;5069931;28;20433;-67
2022/07/01 08:19:47;;;;;;;0.40;0.27;;;15.30;99.90;;;;;;5070793;28;20403;-68
2022/07/01 08:22:12;;;;;;;0.40;0.20;;;15.30;99.90;;;;;;5068477;28;20438;-67
2022/07/01 08:24:38;;;;;;;0.40;0.30;;;15.20;99.90;;;;;;5070237;28;20388;-68
2022/07/01 08:27:04;;;;;;;0.40;0.30;;;15.30;99.90;;;;;;5070294;28;20423;-67
2022/07/01 08:29:30;;;;;;;0.40;0.20;;;15.30;99.90;;;;;;5068327;28;20742;-68
2022/07/01 08:31:55;;;;;;;0.40;0.27;;;15.50;99.90;;;;;;5070549;28;20490;-67
2022/07/01 08:34:21;;;;;;;0.40;0.20;;;15.60;99.90;;;;;;5068997;28;20895;-67
2022/07/01 08:36:47;;;;;;;0.40;0.20;;;15.60;99.90;;;;;;5070382;28;20921;-67
2022/07/01 08:39:12;;;;;;;0.40;0.20;;;15.50;99.90;;;;;;5069681;28;20392;-67
2022/07/01 08:41:40;;;;;;;0.40;0.20;;;15.40;99.90;;;;;;5070625;28;20392;-67
2022/07/01 08:44:06;;;;;;;0.40;0.20;;;15.60;99.90;;;;;;5069619;28;20887;-67
2022/07/01 08:46:33;;;;;;;0.40;0.20;;;15.90;99.90;;;;;;5068104;28;20456;-67
2022/07/01 08:48:59;;;;;;;0.40;0.20;;;16.00;99.90;;;;;;5069205;28;20415;-68
2022/07/01 08:51:25;;;;;;;0.40;0.20;;;16.10;99.90;;;;;;5068878;28;20997;-67
2022/07/01 08:53:50;;;;;;;0.40;0.30;;;16.10;99.90;;;;;;5076850;28;20410;-68
2022/07/01 08:59:01;;;;;;;0.40;0.20;;;16.30;99.90;;;;;;5069640;28;20398;-68
2022/07/01 09:01:26;;;;;;;0.40;0.20;;;16.30;99.90;;;;;;5067520;28;20430;-68
2022/07/01 09:03:55;;;;;;;0.40;0.20;;;16.20;99.90;;;;;;5067939;28;20399;-68
2022/07/01 09:06:23;;;;;;;0.40;0.20;;;16.20;99.90;;;;;;5067439;28;20750;-67
2022/07/01 09:08:50;;;;;;;0.40;0.20;;;16.30;99.90;;;;;;5069230;28;20410;-68
2022/07/01 09:11:19;;;;;;;0.40;0.30;;;16.30;99.90;;;;;;5068156;28;20388;-67
2022/07/01 09:14:03;;;;;;;0.40;0.20;;;16.20;99.90;;;;;;5069988;28;20884;-68
2022/07/01 09:16:29;;;;;;;0.40;0.20;;;16.30;99.90;;;;;;5068815;28;20392;-68
2022/07/01 09:19:03;;;;;;;0.40;0.20;;;16.30;99.90;;;;;;5069663;28;20440;-67
2022/07/01 09:21:32;;;;;;;0.40;0.20;;;16.50;99.90;;;;;;5067402;28;20895;-68
2022/07/01 09:24:25;;;;;;;0.40;0.20;;;16.60;99.90;;;;;;5067460;28;20415;-68
2022/07/01 09:26:59;;;;;;;0.40;0.20;;;16.60;99.90;;;;;;5064500;28;20490;-68
2022/07/01 09:29:31;;;;;;;0.40;0.20;;;16.50;99.90;;;;;;5058986;28;20414;-67
2022/07/01 09:31:58;;;;;;;0.40;0.30;;;16.20;99.90;;;;;;5067997;28;20422;-68
2022/07/01 09:34:24;;;;;;;0.40;0.20;;;16.40;99.90;;;;;;5057954;28;21282;-68
2022/07/01 09:36:57;;;;;;;0.40;0.30;;;16.40;99.90;;;;;;5067771;28;20467;-67
2022/07/01 09:39:23;;;;;;;0.40;0.20;;;16.60;99.90;;;;;;5064851;28;20384;-68
2022/07/01 09:41:53;;;;;;;0.40;0.30;;;16.60;99.90;;;;;;5066341;28;20863;-67
2022/07/01 09:44:19;;;;;;;0.40;0.20;;;16.80;99.90;;;;;;5067033;28;20453;-67
2022/07/01 09:46:56;;;;;;;0.40;0.30;;;17.00;99.90;;;;;;5067046;28;20466;-67
2022/07/01 09:49:23;;;;;;;0.40;0.20;;;16.90;99.90;;;;;;5068388;28;20761;-67
2022/07/01 09:51:50;;;;;;;0.40;0.20;;;16.90;99.90;;;;;;5061148;28;20401;-67
2022/07/01 09:54:17;;;;;;;0.40;0.30;;;16.90;99.90;;;;;;5053860;28;20377;-67
2022/07/01 09:56:43;;;;;;;0.40;0.20;;;17.30;99.90;;;;;;5053360;28;20680;-67
2022/07/01 09:59:09;;;;;;;0.40;0.30;;;17.40;99.90;;;;;;5052185;28;20397;-67
2022/07/01 10:01:38;;;;;;;0.40;0.20;;;17.10;99.90;;;;;;5052515;28;20455;-67
2022/07/01 10:04:06;;;;;;;0.40;0.30;;;17.10;99.90;;;;;;5053590;28;20447;-67
2022/07/01 10:06:52;;;;;;;0.40;0.20;;;17.10;99.90;;;;;;5052191;28;20377;-67
2022/07/01 10:09:55;;;;;;;0.40;0.20;;;17.50;99.90;;;;;;5052383;28;20405;-67
2022/07/01 10:12:40;;;;;;;0.40;0.20;;;17.50;99.90;;;;;;5068707;28;20399;-67
2022/07/01 10:15:09;;;;;;;0.40;0.30;;;17.00;99.90;;;;;;5070939;28;20403;-67
2022/07/01 10:17:40;;;;;;;0.40;0.30;;;17.20;99.90;;;;;;5034342;28;21236;-67
2022/07/01 10:20:09;;;;;;;0.40;0.20;;;17.30;99.90;;;;;;5058420;28;20820;-67
2022/07/01 10:22:36;;;;;;;0.40;0.30;;;17.30;99.90;;;;;;5060994;28;20860;-66
2022/07/01 10:25:33;;;;;;;0.40;0.30;;;17.00;99.90;;;;;;5070970;28;20431;-67
2022/07/01 10:28:22;;;;;;;0.40;0.20;;;16.90;99.90;;;;;;5069763;28;20486;-67
2022/07/01 10:31:01;;;;;;;0.40;0.20;;;16.80;99.90;;;;;;5070710;28;20435;-67
2022/07/01 10:33:53;;;;;;;0.40;0.20;;;16.80;99.90;;;;;;5070986;28;20461;-67
2022/07/01 10:36:22;;;;;;;0.40;0.30;;;16.80;99.90;;;;;;5053730;28;20806;-66
2022/07/01 10:39:03;;;;;;;0.40;0.20;;;16.80;99.90;;;;;;5072130;28;20398;-66
2022/07/01 10:41:50;;;;;;;0.40;0.30;;;17.30;99.90;;;;;;5055018;28;20485;-66
2022/07/01 10:44:16;;;;;;;0.40;0.20;;;17.70;99.90;;;;;;5049075;28;20397;-66
2022/07/01 10:46:46;;;;;;;0.40;0.20;;;18.00;99.90;;;;;;5064195;28;20931;-66
2022/07/01 10:49:39;;;;;;;0.40;0.20;;;18.10;99.90;;;;;;5059111;28;20498;-67
2022/07/01 10:52:09;;;;;;;0.40;0.30;;;18.20;99.90;;;;;;5060374;28;20400;-67
2022/07/01 10:54:40;;;;;;;0.40;0.30;;;18.50;99.90;;;;;;5058626;28;21096;-67
2022/07/01 10:57:23;;;;;;;1.58;1.48;;;18.40;99.90;;;;;;5067972;28;20480;-67
2022/07/01 10:59:58;;;;;;;0.40;0.20;;;18.40;99.90;;;;;;5059698;28;20401;-67
2022/07/01 11:02:28;;;;;;;0.40;0.20;;;18.60;99.90;;;;;;5056917;28;20394;-66
2022/07/01 11:05:00;;;;;;;0.40;0.20;;;18.80;99.90;;;;;;5071495;28;20396;-67
2022/07/01 11:07:28;;;;;;;0.40;0.30;;;19.10;99.90;;;;;;5051615;28;20409;-68
2022/07/01 11:09:54;;;;;;;0.40;0.30;;;19.40;99.90;;;;;;5071685;28;20433;-67
2022/07/01 11:12:23;;;;;;;0.40;0.20;;;19.60;99.90;;;;;;5063049;28;20407;-67
2022/07/01 11:14:49;;;;;;;0.40;0.30;;;19.50;99.90;;;;;;5054651;28;20810;-67
2022/07/01 11:17:14;;;;;;;0.40;0.30;;;19.50;99.90;;;;;;5058246;28;20493;-67
2022/07/01 11:19:57;;;;;;;0.40;0.20;;;19.10;99.90;;;;;;5064777;28;20530;-67
2022/07/01 11:22:25;;;;;;;0.40;0.30;;;19.30;99.90;;;;;;5056887;28;20784;-67
2022/07/01 11:24:53;;;;;;;0.40;0.20;;;19.40;99.90;;;;;;5070911;28;20456;-67
2022/07/01 11:27:19;;;;;;;0.40;0.20;;;19.70;99.90;;;;;;5066606;28;20397;-67
2022/07/01 11:29:57;;;;;;;0.40;0.20;;;20.00;99.90;;;;;;5058622;28;20412;-67
2022/07/01 11:32:24;;;;;;;0.40;0.30;;;20.50;99.90;;;;;;5070368;28;20477;-67
2022/07/01 11:34:50;;;;;;;0.40;0.20;;;20.50;99.90;;;;;;5067694;28;20412;-68
2022/07/01 11:40:09;;;;;;;0.40;0.30;;;19.60;99.90;;;;;;5062459;28;20417;-68
2022/07/01 11:42:35;;;;;;;0.40;0.20;;;19.80;99.90;;;;;;5060529;28;20440;-68
2022/07/01 11:45:02;;;;;;;0.40;0.30;;;20.40;99.90;;;;;;5060159;28;20476;-67
2022/07/01 11:47:28;;;;;;;0.40;0.28;;;21.30;99.90;;;;;;5064180;28;20387;-68
2022/07/01 11:49:55;;;;;;;0.40;0.30;;;21.70;99.90;;;;;;5066260;28;20407;-68
2022/07/01 11:52:22;;;;;;;0.40;0.20;;;22.00;99.90;;;;;;5058972;28;20946;-69
2022/07/01 11:54:50;;;;;;;0.40;0.20;;;22.40;99.90;;;;;;5061176;28;20773;-69
2022/07/01 11:57:22;;;;;;;0.50;0.40;;;22.70;99.90;;;;;;5060277;28;20733;-70
2022/07/01 11:59:49;;;;;;;0.40;0.20;;;22.60;99.80;;;;;;5064236;28;20399;-67
2022/07/01 12:02:17;;;;;;;0.40;0.20;;;21.90;99.90;;;;;;5066838;28;20496;-67
2022/07/01 12:04:43;;;;;;;0.40;0.20;;;22.90;99.90;;;;;;5065023;28;20395;-67
2022/07/01 12:07:10;;;;;;;0.40;0.20;;;23.10;94.40;;;;;;5068601;28;20396;-67
2022/07/01 12:09:37;;;;;;;0.40;0.20;;;23.30;99.90;;;;;;5062409;28;20418;-66
2022/07/01 12:12:04;;;;;;;0.40;0.20;;;23.90;94.80;;;;;;5067913;28;20399;-66
2022/07/01 12:14:32;;;;;;;0.40;0.20;;;25.00;91.50;;;;;;5067188;28;20416;-71
2022/07/01 12:17:01;;;;;;;0.40;0.20;;;24.80;81.70;;;;;;5067958;28;20395;-68
2022/07/01 12:19:29;;;;;;;0.40;0.20;;;25.60;84.90;;;;;;5069130;28;20411;-68
2022/07/01 12:21:58;;;;;;;0.40;0.20;;;24.20;83.90;;;;;;5069085;28;20387;-68
2022/07/01 12:24:24;;;;;;;0.40;0.20;;;24.60;86.60;;;;;;5066547;28;20498;-67
2022/07/01 12:27:03;;;;;;;0.40;0.20;;;25.30;84.10;;;;;;5066680;28;20399;-67
2022/07/01 12:29:45;;;;;;;0.40;0.20;;;25.50;79.10;;;;;;5068776;28;20418;-67
2022/07/01 12:32:13;;;;;;;0.40;0.20;;;24.60;80.50;;;;;;5069112;28;20486;-67
2022/07/01 12:34:46;;;;;;;0.40;0.20;;;26.30;77.30;;;;;;5069177;28;20404;-66
2022/07/01 12:37:39;;;;;;;0.40;0.20;;;25.00;74.20;;;;;;5069413;28;20412;-67
2022/07/01 12:40:20;;;;;;;0.40;0.20;;;25.10;83.40;;;;;;5059977;28;20400;-66
2022/07/01 12:42:46;;;;;;;0.40;0.20;;;25.00;90.60;;;;;;5062875;28;20880;-66
2022/07/01 12:45:21;;;;;;;0.40;0.20;;;23.70;87.50;;;;;;5058547;28;20401;-66
2022/07/01 12:47:49;;;;;;;0.40;0.20;;;24.00;88.30;;;;;;5068099;28;20392;-66
2022/07/01 12:50:20;;;;;;;0.40;0.20;;;24.20;90.80;;;;;;5069853;28;20498;-66
2022/07/01 12:53:06;;;;;;;0.40;0.20;;;24.90;93.20;;;;;;5067269;28;20414;-67
2022/07/01 12:55:42;;;;;;;0.40;0.20;;;24.70;91.10;;;;;;5067911;28;20400;-67
2022/07/01 12:58:11;;;;;;;0.40;0.20;;;25.10;89.00;;;;;;5067736;28;20395;-67
2022/07/01 13:00:39;;;;;;;0.40;0.20;;;24.70;91.60;;;;;;5064697;28;20404;-67
2022/07/01 13:03:06;;;;;;;0.40;0.20;;;24.30;91.20;;;;;;5066304;28;20403;-67
2022/07/01 13:05:34;;;;;;;0.40;0.20;;;24.00;92.50;;;;;;5068513;28;20395;-67
2022/07/01 13:08:00;;;;;;;0.40;0.20;;;23.60;92.90;;;;;;5065222;28;20476;-67